sensor_id;sensor_type;location;lat;lon;timestamp;pressure;altitude;pressure_sealevel;temperature;humidity
14089;BME280;7120;52.890;6.040;2023-07-13T00:00:28;101213.75;;;17.90;100.00
14089;BME280;7120;52.890;6.040;2023-07-13T00:02:54;101209.69;;;17.75;100.00
14089;BME280;7120;52.890;6.040;2023-07-13T00:05:21;101212.34;;;17.71;100.00
14089;BME280;7120;52.890;6.040;2023-07-13T00:07:47;101217.06;;;17.71;100.00
14089;BME280;7120;52.890;6.040;2023-07-13T00:10:13;101219.13;;;17.53;100.00
14089;BME280;7120;52.890;6.040;2023-07-13T00:12:39;101217.16;;;17.41;100.00
14089;BME280;7120;52.890;6.040;2023-07-13T00:15:21;101227.97;;;17.46;100.00
14089;BME280;7120;52.890;6.040;2023-07-13T00:17:51;101221.59;;;17.34;100.00
14089;BME280;7120;52.890;6.040;2023-07-13T00:20:18;101218.44;;;17.23;100.00
14089;BME280;7120;52.890;6.040;2023-07-13T00:22:43;101223.28;;;17.26;100.00
14089;BME280;7120;52.890;6.040;2023-07-13T00:25:11;101227.53;;;17.23;100.00
14089;BME280;7120;52.890;6.040;2023-07-13T00:27:37;101230.19;;;17.20;100.00
14089;BME280;7120;52.890;6.040;2023-07-13T00:30:03;101233.94;;;17.15;100.00
14089;BME280;7120;52.890;6.040;2023-07-13T00:32:28;101231.19;;;17.15;100.00
14089;BME280;7120;52.890;6.040;2023-07-13T00:34:55;101229.94;;;17.04;100.00
14089;BME280;7120;52.890;6.040;2023-07-13T00:37:20;101224.22;;;17.09;100.00
14089;BME280;7120;52.890;6.040;2023-07-13T00:39:46;101239.94;;;17.17;100.00
14089;BME280;7120;52.890;6.040;2023-07-13T00:42:11;101237.16;;;17.17;100.00
14089;BME280;7120;52.890;6.040;2023-07-13T00:44:37;101236.72;;;17.15;100.00
14089;BME280;7120;52.890;6.040;2023-07-13T00:47:04;101241.34;;;17.23;100.00
14089;BME280;7120;52.890;6.040;2023-07-13T00:49:31;101238.75;;;17.27;100.00
14089;BME280;7120;52.890;6.040;2023-07-13T00:52:00;101236.28;;;17.25;100.00
14089;BME280;7120;52.890;6.040;2023-07-13T00:54:35;101243.16;;;17.19;100.00
14089;BME280;7120;52.890;6.040;2023-07-13T00:57:03;101230.91;;;17.08;100.00
14089;BME280;7120;52.890;6.040;2023-07-13T00:59:31;101239.13;;;17.17;100.00
14089;BME280;7120;52.890;6.040;2023-07-13T01:01:56;101243.78;;;17.04;100.00
14089;BME280;7120;52.890;6.040;2023-07-13T01:04:24;101244.00;;;16.99;100.00
14089;BME280;7120;52.890;6.040;2023-07-13T01:06:50;101242.44;;;17.10;100.00
14089;BME280;7120;52.890;6.040;2023-07-13T01:09:16;101249.09;;;17.09;100.00
14089;BME280;7120;52.890;6.040;2023-07-13T01:11:41;101245.59;;;17.00;100.00
14089;BME280;7120;52.890;6.040;2023-07-13T01:14:08;101254.00;;;17.03;100.00
14089;BME280;7120;52.890;6.040;2023-07-13T01:16:36;101248.75;;;16.90;100.00
14089;BME280;7120;52.890;6.040;2023-07-13T01:19:10;101236.22;;;16.92;100.00
14089;BME280;7120;52.890;6.040;2023-07-13T01:21:38;101231.97;;;16.95;100.00
14089;BME280;7120;52.890;6.040;2023-07-13T01:24:08;101237.56;;;16.86;100.00
14089;BME280;7120;52.890;6.040;2023-07-13T01:26:34;101229.47;;;16.81;100.00
14089;BME280;7120;52.890;6.040;2023-07-13T01:28:59;101243.00;;;16.74;100.00
14089;BME280;7120;52.890;6.040;2023-07-13T01:31:25;101241.22;;;16.69;100.00
14089;BME280;7120;52.890;6.040;2023-07-13T01:33:51;101236.31;;;16.75;100.00
14089;BME280;7120;52.890;6.040;2023-07-13T01:36:16;101241.03;;;16.74;100.00
14089;BME280;7120;52.890;6.040;2023-07-13T01:38:42;101238.75;;;16.77;100.00
14089;BME280;7120;52.890;6.040;2023-07-13T01:41:07;101239.91;;;16.67;100.00
14089;BME280;7120;52.890;6.040;2023-07-13T01:43:33;101233.59;;;16.66;100.00
14089;BME280;7120;52.890;6.040;2023-07-13T01:45:58;101231.22;;;16.56;100.00
14089;BME280;7120;52.890;6.040;2023-07-13T01:48:24;101232.53;;;16.50;100.00
14089;BME280;7120;52.890;6.040;2023-07-13T01:50:49;101234.84;;;16.39;100.00
14089;BME280;7120;52.890;6.040;2023-07-13T01:53:15;101235.00;;;16.43;100.00
14089;BME280;7120;52.890;6.040;2023-07-13T01:55:41;101227.25;;;16.36;100.00
14089;BME280;7120;52.890;6.040;2023-07-13T01:58:07;101233.91;;;16.35;100.00
14089;BME280;7120;52.890;6.040;2023-07-13T02:00:32;101241.72;;;16.25;100.00
14089;BME280;7120;52.890;6.040;2023-07-13T02:02:58;101246.28;;;16.20;100.00
14089;BME280;7120;52.890;6.040;2023-07-13T02:05:23;101257.16;;;16.26;100.00
14089;BME280;7120;52.890;6.040;2023-07-13T02:07:49;101247.28;;;16.16;100.00
14089;BME280;7120;52.890;6.040;2023-07-13T02:10:15;101238.34;;;16.19;100.00
14089;BME280;7120;52.890;6.040;2023-07-13T02:12:41;101234.66;;;16.06;100.00
14089;BME280;7120;52.890;6.040;2023-07-13T02:15:07;101240.00;;;16.11;100.00
14089;BME280;7120;52.890;6.040;2023-07-13T02:17:34;101236.94;;;16.04;100.00
14089;BME280;7120;52.890;6.040;2023-07-13T02:19:59;101241.59;;;16.12;100.00
14089;BME280;7120;52.890;6.040;2023-07-13T02:22:25;101239.34;;;16.14;100.00
14089;BME280;7120;52.890;6.040;2023-07-13T02:24:50;101256.06;;;16.09;100.00
14089;BME280;7120;52.890;6.040;2023-07-13T02:27:15;101243.44;;;16.08;100.00
14089;BME280;7120;52.890;6.040;2023-07-13T02:29:41;101244.56;;;16.07;100.00
14089;BME280;7120;52.890;6.040;2023-07-13T02:32:07;101244.06;;;16.14;100.00
14089;BME280;7120;52.890;6.040;2023-07-13T02:34:32;101240.97;;;16.07;100.00
14089;BME280;7120;52.890;6.040;2023-07-13T02:36:58;101244.56;;;16.07;100.00
14089;BME280;7120;52.890;6.040;2023-07-13T02:39:23;101247.50;;;16.02;100.00
14089;BME280;7120;52.890;6.040;2023-07-13T02:41:48;101252.00;;;16.07;100.00
14089;BME280;7120;52.890;6.040;2023-07-13T02:44:14;101248.78;;;16.05;100.00
14089;BME280;7120;52.890;6.040;2023-07-13T02:46:40;101242.28;;;16.09;100.00
14089;BME280;7120;52.890;6.040;2023-07-13T02:49:06;101246.19;;;16.08;100.00
14089;BME280;7120;52.890;6.040;2023-07-13T02:51:32;101246.69;;;16.02;100.00
14089;BME280;7120;52.890;6.040;2023-07-13T02:54:00;101254.09;;;16.18;100.00
14089;BME280;7120;52.890;6.040;2023-07-13T02:56:27;101255.22;;;16.17;100.00
14089;BME280;7120;52.890;6.040;2023-07-13T02:58:54;101252.78;;;16.25;100.00
14089;BME280;7120;52.890;6.040;2023-07-13T03:01:20;101259.78;;;16.22;100.00
14089;BME280;7120;52.890;6.040;2023-07-13T03:03:47;101255.53;;;16.25;100.00
14089;BME280;7120;52.890;6.040;2023-07-13T03:06:13;101248.34;;;16.32;100.00
14089;BME280;7120;52.890;6.040;2023-07-13T03:08:39;101242.72;;;16.29;100.00
14089;BME280;7120;52.890;6.040;2023-07-13T03:11:08;101255.31;;;16.38;100.00
14089;BME280;7120;52.890;6.040;2023-07-13T03:13:36;101261.81;;;16.34;100.00
14089;BME280;7120;52.890;6.040;2023-07-13T03:16:02;101258.56;;;16.40;100.00
14089;BME280;7120;52.890;6.040;2023-07-13T03:18:28;101266.66;;;16.45;100.00
14089;BME280;7120;52.890;6.040;2023-07-13T03:20:53;101266.63;;;16.54;100.00
14089;BME280;7120;52.890;6.040;2023-07-13T03:23:20;101263.72;;;16.51;100.00
14089;BME280;7120;52.890;6.040;2023-07-13T03:25:46;101259.88;;;16.43;100.00
14089;BME280;7120;52.890;6.040;2023-07-13T03:28:12;101257.41;;;16.50;100.00
14089;BME280;7120;52.890;6.040;2023-07-13T03:30:38;101264.66;;;16.55;100.00
14089;BME280;7120;52.890;6.040;2023-07-13T03:33:03;101270.00;;;16.60;100.00
14089;BME280;7120;52.890;6.040;2023-07-13T03:35:29;101273.25;;;16.62;100.00
14089;BME280;7120;52.890;6.040;2023-07-13T03:37:54;101284.75;;;16.72;100.00
14089;BME280;7120;52.890;6.040;2023-07-13T03:40:20;101274.19;;;16.74;100.00
14089;BME280;7120;52.890;6.040;2023-07-13T03:42:46;101280.19;;;16.68;100.00
14089;BME280;7120;52.890;6.040;2023-07-13T03:45:11;101278.03;;;16.82;100.00
14089;BME280;7120;52.890;6.040;2023-07-13T03:47:37;101278.50;;;16.84;100.00
14089;BME280;7120;52.890;6.040;2023-07-13T03:50:03;101277.66;;;16.92;100.00
14089;BME280;7120;52.890;6.040;2023-07-13T03:52:28;101276.34;;;16.98;100.00
14089;BME280;7120;52.890;6.040;2023-07-13T03:54:54;101271.28;;;17.00;100.00
14089;BME280;7120;52.890;6.040;2023-07-13T03:57:19;101270.47;;;17.00;100.00
14089;BME280;7120;52.890;6.040;2023-07-13T03:59:45;101275.38;;;16.94;100.00
14089;BME280;7120;52.890;6.040;2023-07-13T04:02:10;101267.09;;;16.94;100.00
14089;BME280;7120;52.890;6.040;2023-07-13T04:04:36;101275.03;;;16.96;100.00
14089;BME280;7120;52.890;6.040;2023-07-13T04:07:01;101284.94;;;16.97;100.00
14089;BME280;7120;52.890;6.040;2023-07-13T04:09:26;101280.84;;;17.03;100.00
14089;BME280;7120;52.890;6.040;2023-07-13T04:11:52;101281.88;;;16.98;100.00
14089;BME280;7120;52.890;6.040;2023-07-13T04:14:17;101286.66;;;17.10;100.00
14089;BME280;7120;52.890;6.040;2023-07-13T04:16:43;101291.38;;;17.10;100.00
14089;BME280;7120;52.890;6.040;2023-07-13T04:19:09;101288.41;;;17.15;100.00
14089;BME280;7120;52.890;6.040;2023-07-13T04:21:36;101284.97;;;17.18;100.00
14089;BME280;7120;52.890;6.040;2023-07-13T04:24:01;101291.00;;;17.20;100.00
14089;BME280;7120;52.890;6.040;2023-07-13T04:26:28;101297.38;;;17.33;100.00
14089;BME280;7120;52.890;6.040;2023-07-13T04:28:55;101294.16;;;17.30;100.00
14089;BME280;7120;52.890;6.040;2023-07-13T04:31:21;101298.88;;;17.30;100.00
14089;BME280;7120;52.890;6.040;2023-07-13T04:33:47;101300.16;;;17.33;100.00
14089;BME280;7120;52.890;6.040;2023-07-13T04:36:12;101305.94;;;17.40;100.00
14089;BME280;7120;52.890;6.040;2023-07-13T04:38:37;101308.66;;;17.27;100.00
14089;BME280;7120;52.890;6.040;2023-07-13T04:41:05;101307.91;;;17.39;100.00
14089;BME280;7120;52.890;6.040;2023-07-13T04:43:32;101312.34;;;17.32;100.00
14089;BME280;7120;52.890;6.040;2023-07-13T04:46:04;101312.81;;;17.34;100.00
14089;BME280;7120;52.890;6.040;2023-07-13T04:48:30;101310.13;;;17.25;100.00
14089;BME280;7120;52.890;6.040;2023-07-13T04:50:57;101316.28;;;17.30;100.00
14089;BME280;7120;52.890;6.040;2023-07-13T04:53:23;101321.00;;;17.30;100.00
14089;BME280;7120;52.890;6.040;2023-07-13T04:55:49;101316.09;;;17.36;100.00
14089;BME280;7120;52.890;6.040;2023-07-13T04:58:14;101320.00;;;17.35;100.00
14089;BME280;7120;52.890;6.040;2023-07-13T05:00:40;101317.97;;;17.44;100.00
14089;BME280;7120;52.890;6.040;2023-07-13T05:03:05;101323.31;;;17.49;100.00
14089;BME280;7120;52.890;6.040;2023-07-13T05:05:31;101322.28;;;17.53;100.00
14089;BME280;7120;52.890;6.040;2023-07-13T05:07:56;101319.66;;;17.57;100.00
14089;BME280;7120;52.890;6.040;2023-07-13T05:10:22;101322.44;;;17.57;100.00
14089;BME280;7120;52.890;6.040;2023-07-13T05:12:48;101323.84;;;17.63;100.00
14089;BME280;7120;52.890;6.040;2023-07-13T05:15:14;101327.53;;;17.67;100.00
14089;BME280;7120;52.890;6.040;2023-07-13T05:17:40;101337.44;;;17.68;100.00
14089;BME280;7120;52.890;6.040;2023-07-13T05:20:07;101341.03;;;17.90;100.00
14089;BME280;7120;52.890;6.040;2023-07-13T05:22:33;101350.19;;;17.90;100.00
14089;BME280;7120;52.890;6.040;2023-07-13T05:25:01;101358.38;;;18.20;100.00
14089;BME280;7120;52.890;6.040;2023-07-13T05:27:26;101349.97;;;18.28;100.00
14089;BME280;7120;52.890;6.040;2023-07-13T05:29:52;101345.44;;;18.24;100.00
14089;BME280;7120;52.890;6.040;2023-07-13T05:32:18;101344.38;;;18.16;100.00
14089;BME280;7120;52.890;6.040;2023-07-13T05:34:44;101351.06;;;18.15;100.00
14089;BME280;7120;52.890;6.040;2023-07-13T05:37:09;101353.56;;;18.41;100.00
14089;BME280;7120;52.890;6.040;2023-07-13T05:39:35;101354.13;;;18.34;100.00
14089;BME280;7120;52.890;6.040;2023-07-13T05:42:01;101352.53;;;18.46;100.00
14089;BME280;7120;52.890;6.040;2023-07-13T05:44:27;101356.94;;;18.59;100.00
14089;BME280;7120;52.890;6.040;2023-07-13T05:46:53;101358.06;;;18.46;100.00
14089;BME280;7120;52.890;6.040;2023-07-13T05:49:20;101361.22;;;18.56;100.00
14089;BME280;7120;52.890;6.040;2023-07-13T05:51:45;101362.00;;;18.45;100.00
14089;BME280;7120;52.890;6.040;2023-07-13T05:54:11;101364.00;;;18.56;100.00
14089;BME280;7120;52.890;6.040;2023-07-13T05:56:36;101367.28;;;18.37;100.00
14089;BME280;7120;52.890;6.040;2023-07-13T05:59:02;101367.53;;;18.45;100.00
14089;BME280;7120;52.890;6.040;2023-07-13T06:01:27;101365.03;;;18.64;100.00
14089;BME280;7120;52.890;6.040;2023-07-13T06:03:52;101361.16;;;18.77;100.00
14089;BME280;7120;52.890;6.040;2023-07-13T06:06:18;101371.22;;;18.82;100.00
14089;BME280;7120;52.890;6.040;2023-07-13T06:08:43;101367.63;;;18.93;100.00
14089;BME280;7120;52.890;6.040;2023-07-13T06:11:21;101370.44;;;19.18;100.00
14089;BME280;7120;52.890;6.040;2023-07-13T06:13:47;101364.06;;;19.17;100.00
14089;BME280;7120;52.890;6.040;2023-07-13T06:16:13;101373.75;;;19.24;100.00
14089;BME280;7120;52.890;6.040;2023-07-13T06:18:39;101376.66;;;19.39;100.00
14089;BME280;7120;52.890;6.040;2023-07-13T06:21:17;101369.00;;;19.48;100.00
14089;BME280;7120;52.890;6.040;2023-07-13T06:23:44;101372.13;;;19.35;100.00
14089;BME280;7120;52.890;6.040;2023-07-13T06:26:10;101375.25;;;19.33;100.00
14089;BME280;7120;52.890;6.040;2023-07-13T06:28:37;101382.19;;;19.39;100.00
14089;BME280;7120;52.890;6.040;2023-07-13T06:31:06;101370.97;;;19.60;100.00
14089;BME280;7120;52.890;6.040;2023-07-13T06:33:32;101373.41;;;20.02;100.00
14089;BME280;7120;52.890;6.040;2023-07-13T06:35:58;101364.69;;;19.75;100.00
14089;BME280;7120;52.890;6.040;2023-07-13T06:38:23;101371.72;;;19.73;100.00
14089;BME280;7120;52.890;6.040;2023-07-13T06:40:49;101379.97;;;19.57;100.00
14089;BME280;7120;52.890;6.040;2023-07-13T06:43:14;101387.28;;;19.62;100.00
14089;BME280;7120;52.890;6.040;2023-07-13T06:45:42;101383.41;;;20.07;100.00
14089;BME280;7120;52.890;6.040;2023-07-13T06:48:11;101381.56;;;19.70;100.00
14089;BME280;7120;52.890;6.040;2023-07-13T06:50:36;101375.91;;;20.07;100.00
14089;BME280;7120;52.890;6.040;2023-07-13T06:53:02;101384.56;;;20.34;100.00
14089;BME280;7120;52.890;6.040;2023-07-13T06:55:27;101385.19;;;20.27;100.00
14089;BME280;7120;52.890;6.040;2023-07-13T06:57:53;101379.03;;;20.34;100.00
14089;BME280;7120;52.890;6.040;2023-07-13T07:00:20;101383.81;;;20.49;100.00
14089;BME280;7120;52.890;6.040;2023-07-13T07:02:45;101388.56;;;20.48;100.00
14089;BME280;7120;52.890;6.040;2023-07-13T07:05:11;101398.66;;;20.69;100.00
14089;BME280;7120;52.890;6.040;2023-07-13T07:07:36;101392.53;;;20.63;100.00
14089;BME280;7120;52.890;6.040;2023-07-13T07:10:02;101404.59;;;20.39;100.00
14089;BME280;7120;52.890;6.040;2023-07-13T07:12:28;101398.63;;;20.25;100.00
14089;BME280;7120;52.890;6.040;2023-07-13T07:14:54;101403.47;;;20.56;100.00
14089;BME280;7120;52.890;6.040;2023-07-13T07:17:19;101402.97;;;20.38;100.00
14089;BME280;7120;52.890;6.040;2023-07-13T07:19:45;101407.97;;;20.33;100.00
14089;BME280;7120;52.890;6.040;2023-07-13T07:22:10;101398.81;;;20.60;100.00
14089;BME280;7120;52.890;6.040;2023-07-13T07:24:36;101402.13;;;21.13;100.00
14089;BME280;7120;52.890;6.040;2023-07-13T07:27:01;101406.81;;;21.09;100.00
14089;BME280;7120;52.890;6.040;2023-07-13T07:29:27;101408.25;;;21.03;100.00
14089;BME280;7120;52.890;6.040;2023-07-13T07:31:53;101402.88;;;20.94;100.00
14089;BME280;7120;52.890;6.040;2023-07-13T07:34:19;101406.72;;;21.21;100.00
14089;BME280;7120;52.890;6.040;2023-07-13T07:36:44;101404.44;;;20.48;100.00
14089;BME280;7120;52.890;6.040;2023-07-13T07:39:10;101405.19;;;20.61;100.00
14089;BME280;7120;52.890;6.040;2023-07-13T07:41:36;101403.00;;;20.26;100.00
14089;BME280;7120;52.890;6.040;2023-07-13T07:44:02;101403.53;;;20.44;100.00
14089;BME280;7120;52.890;6.040;2023-07-13T07:46:28;101398.47;;;20.77;100.00
14089;BME280;7120;52.890;6.040;2023-07-13T07:48:55;101396.88;;;21.08;100.00
14089;BME280;7120;52.890;6.040;2023-07-13T07:51:21;101404.47;;;21.11;100.00
14089;BME280;7120;52.890;6.040;2023-07-13T07:53:47;101408.59;;;20.70;100.00
14089;BME280;7120;52.890;6.040;2023-07-13T07:56:12;101417.66;;;20.67;100.00
14089;BME280;7120;52.890;6.040;2023-07-13T07:58:38;101414.41;;;20.65;100.00
14089;BME280;7120;52.890;6.040;2023-07-13T08:01:06;101423.03;;;20.60;100.00
14089;BME280;7120;52.890;6.040;2023-07-13T08:03:32;101426.63;;;20.92;100.00
14089;BME280;7120;52.890;6.040;2023-07-13T08:05:58;101425.53;;;20.37;100.00
14089;BME280;7120;52.890;6.040;2023-07-13T08:08:24;101432.00;;;20.41;100.00
14089;BME280;7120;52.890;6.040;2023-07-13T08:10:49;101426.97;;;20.30;100.00
14089;BME280;7120;52.890;6.040;2023-07-13T08:13:15;101438.44;;;20.57;100.00
14089;BME280;7120;52.890;6.040;2023-07-13T08:15:40;101425.44;;;20.33;100.00
14089;BME280;7120;52.890;6.040;2023-07-13T08:18:06;101426.00;;;20.11;100.00
14089;BME280;7120;52.890;6.040;2023-07-13T08:20:37;101432.59;;;20.34;100.00
14089;BME280;7120;52.890;6.040;2023-07-13T08:23:03;101430.66;;;20.63;100.00
14089;BME280;7120;52.890;6.040;2023-07-13T08:25:29;101432.00;;;20.41;100.00
14089;BME280;7120;52.890;6.040;2023-07-13T08:27:54;101432.44;;;20.43;100.00
14089;BME280;7120;52.890;6.040;2023-07-13T08:30:20;101434.09;;;21.03;100.00
14089;BME280;7120;52.890;6.040;2023-07-13T08:32:45;101426.72;;;21.27;100.00
14089;BME280;7120;52.890;6.040;2023-07-13T08:35:10;101428.66;;;21.74;100.00
14089;BME280;7120;52.890;6.040;2023-07-13T08:37:37;101433.66;;;22.61;100.00
14089;BME280;7120;52.890;6.040;2023-07-13T08:40:02;101429.13;;;22.34;89.27
14089;BME280;7120;52.890;6.040;2023-07-13T08:42:51;101442.34;;;22.17;95.58
14089;BME280;7120;52.890;6.040;2023-07-13T08:48:36;101446.44;;;21.69;85.82
14089;BME280;7120;52.890;6.040;2023-07-13T08:50:46;101434.09;;;21.51;84.11
14089;BME280;7120;52.890;6.040;2023-07-13T08:53:15;101444.66;;;21.13;83.58
14089;BME280;7120;52.890;6.040;2023-07-13T08:55:42;101445.66;;;20.90;90.50
14089;BME280;7120;52.890;6.040;2023-07-13T08:58:13;101450.31;;;20.85;92.76
14089;BME280;7120;52.890;6.040;2023-07-13T09:03:18;101450.22;;;20.66;91.30
14089;BME280;7120;52.890;6.040;2023-07-13T09:05:49;101458.25;;;20.55;91.93
14089;BME280;7120;52.890;6.040;2023-07-13T09:11:17;101468.16;;;20.84;96.66
14089;BME280;7120;52.890;6.040;2023-07-13T09:14:06;101455.72;;;20.94;100.00
14089;BME280;7120;52.890;6.040;2023-07-13T09:16:39;101455.09;;;21.83;89.61
14089;BME280;7120;52.890;6.040;2023-07-13T09:19:07;101453.69;;;21.74;87.23
14089;BME280;7120;52.890;6.040;2023-07-13T09:21:39;101460.63;;;23.19;76.58
14089;BME280;7120;52.890;6.040;2023-07-13T09:24:27;101463.22;;;23.08;89.41
14089;BME280;7120;52.890;6.040;2023-07-13T09:26:54;101451.50;;;23.22;98.61
14089;BME280;7120;52.890;6.040;2023-07-13T09:29:38;101468.78;;;23.54;85.62
14089;BME280;7120;52.890;6.040;2023-07-13T09:32:10;101461.91;;;22.60;80.54
14089;BME280;7120;52.890;6.040;2023-07-13T09:34:37;101469.06;;;23.72;73.39
14089;BME280;7120;52.890;6.040;2023-07-13T09:37:03;101463.31;;;24.18;65.96
14089;BME280;7120;52.890;6.040;2023-07-13T09:39:33;101459.66;;;25.22;67.61
14089;BME280;7120;52.890;6.040;2023-07-13T09:42:06;101462.56;;;25.36;59.92
14089;BME280;7120;52.890;6.040;2023-07-13T09:44:38;101453.34;;;25.35;54.13
14089;BME280;7120;52.890;6.040;2023-07-13T09:47:15;101451.41;;;24.95;54.71
14089;BME280;7120;52.890;6.040;2023-07-13T09:49:42;101469.16;;;25.65;53.54
14089;BME280;7120;52.890;6.040;2023-07-13T09:52:12;101469.88;;;26.13;50.13
14089;BME280;7120;52.890;6.040;2023-07-13T09:54:39;101458.03;;;26.48;51.74
14089;BME280;7120;52.890;6.040;2023-07-13T09:57:13;101469.19;;;25.68;50.60
14089;BME280;7120;52.890;6.040;2023-07-13T09:59:50;101468.19;;;25.94;52.34
14089;BME280;7120;52.890;6.040;2023-07-13T10:05:02;101469.75;;;25.88;55.26
14089;BME280;7120;52.890;6.040;2023-07-13T10:07:29;101484.72;;;25.55;53.23
14089;BME280;7120;52.890;6.040;2023-07-13T10:09:59;101479.16;;;25.62;54.55
14089;BME280;7120;52.890;6.040;2023-07-13T10:12:27;101482.97;;;25.88;54.54
14089;BME280;7120;52.890;6.040;2023-07-13T10:14:58;101480.31;;;26.20;56.65
14089;BME280;7120;52.890;6.040;2023-07-13T10:17:34;101474.13;;;25.86;55.04
14089;BME280;7120;52.890;6.040;2023-07-13T10:20:03;101472.88;;;26.56;59.04
14089;BME280;7120;52.890;6.040;2023-07-13T10:25:22;101481.50;;;25.53;54.21
14089;BME280;7120;52.890;6.040;2023-07-13T10:27:51;101473.97;;;25.64;51.70
14089;BME280;7120;52.890;6.040;2023-07-13T10:30:24;101476.91;;;26.59;52.92
14089;BME280;7120;52.890;6.040;2023-07-13T10:32:58;101490.25;;;27.40;49.60
14089;BME280;7120;52.890;6.040;2023-07-13T10:35:24;101497.28;;;24.87;52.23
14089;BME280;7120;52.890;6.040;2023-07-13T10:37:58;101497.53;;;26.18;48.73
14089;BME280;7120;52.890;6.040;2023-07-13T10:40:34;101493.72;;;26.51;47.83
14089;BME280;7120;52.890;6.040;2023-07-13T10:43:07;101495.78;;;25.37;49.97
14089;BME280;7120;52.890;6.040;2023-07-13T10:45:35;101510.19;;;24.95;52.79
14089;BME280;7120;52.890;6.040;2023-07-13T10:48:03;101501.78;;;24.95;53.84
14089;BME280;7120;52.890;6.040;2023-07-13T10:50:29;101494.13;;;24.92;54.64
14089;BME280;7120;52.890;6.040;2023-07-13T10:53:03;101504.06;;;25.23;55.36
14089;BME280;7120;52.890;6.040;2023-07-13T10:59:24;101519.63;;;24.50;52.61
14089;BME280;7120;52.890;6.040;2023-07-13T11:02:10;101521.72;;;23.96;57.60
14089;BME280;7120;52.890;6.040;2023-07-13T11:04:45;101508.94;;;24.59;53.96
14089;BME280;7120;52.890;6.040;2023-07-13T11:07:26;101522.16;;;25.84;56.02
14089;BME280;7120;52.890;6.040;2023-07-13T11:10:02;101512.91;;;26.49;52.28
14089;BME280;7120;52.890;6.040;2023-07-13T11:12:53;101525.88;;;26.82;47.65
14089;BME280;7120;52.890;6.040;2023-07-13T11:15:45;101528.22;;;26.66;49.92
14089;BME280;7120;52.890;6.040;2023-07-13T11:18:22;101529.91;;;26.89;49.78
14089;BME280;7120;52.890;6.040;2023-07-13T11:20:49;101534.28;;;26.75;46.58
14089;BME280;7120;52.890;6.040;2023-07-13T11:25:41;101531.50;;;26.02;48.21
14089;BME280;7120;52.890;6.040;2023-07-13T11:33:21;101540.06;;;24.54;49.65
14089;BME280;7120;52.890;6.040;2023-07-13T11:41:10;101534.31;;;26.90;51.65
14089;BME280;7120;52.890;6.040;2023-07-13T11:43:38;101535.84;;;26.66;46.19
14089;BME280;7120;52.890;6.040;2023-07-13T11:48:46;101544.44;;;27.16;45.70
14089;BME280;7120;52.890;6.040;2023-07-13T11:51:26;101544.75;;;26.93;47.20
14089;BME280;7120;52.890;6.040;2023-07-13T11:53:54;101543.56;;;26.10;47.07
14089;BME280;7120;52.890;6.040;2023-07-13T11:56:23;101563.09;;;25.96;49.49
14089;BME280;7120;52.890;6.040;2023-07-13T11:58:54;101553.63;;;26.18;48.42
14089;BME280;7120;52.890;6.040;2023-07-13T12:01:22;101549.06;;;26.58;46.84
14089;BME280;7120;52.890;6.040;2023-07-13T12:03:50;101558.41;;;26.14;44.72
14089;BME280;7120;52.890;6.040;2023-07-13T12:06:30;101552.13;;;25.73;46.81
14089;BME280;7120;52.890;6.040;2023-07-13T12:09:00;101550.38;;;26.09;43.16
14089;BME280;7120;52.890;6.040;2023-07-13T12:11:27;101552.00;;;26.14;46.02
14089;BME280;7120;52.890;6.040;2023-07-13T12:13:52;101545.28;;;26.33;45.65
14089;BME280;7120;52.890;6.040;2023-07-13T12:18:52;101554.03;;;24.87;48.96
14089;BME280;7120;52.890;6.040;2023-07-13T12:21:19;101554.47;;;24.56;48.18
14089;BME280;7120;52.890;6.040;2023-07-13T12:23:48;101542.81;;;25.17;48.98
14089;BME280;7120;52.890;6.040;2023-07-13T12:26:15;101551.31;;;24.94;49.17
14089;BME280;7120;52.890;6.040;2023-07-13T12:28:52;101559.09;;;25.49;50.76
14089;BME280;7120;52.890;6.040;2023-07-13T12:34:11;101561.63;;;25.20;47.19
14089;BME280;7120;52.890;6.040;2023-07-13T12:39:36;101557.78;;;25.36;47.20
14089;BME280;7120;52.890;6.040;2023-07-13T12:44:46;101558.75;;;26.02;46.81
14089;BME280;7120;52.890;6.040;2023-07-13T12:47:14;101551.69;;;26.29;47.76
14089;BME280;7120;52.890;6.040;2023-07-13T12:49:43;101557.75;;;25.32;47.92
14089;BME280;7120;52.890;6.040;2023-07-13T12:52:18;101561.28;;;24.88;49.41
14089;BME280;7120;52.890;6.040;2023-07-13T12:55:03;101560.41;;;25.59;47.12
14089;BME280;7120;52.890;6.040;2023-07-13T12:57:29;101566.59;;;25.82;46.24
14089;BME280;7120;52.890;6.040;2023-07-13T12:59:55;101574.28;;;26.54;44.91
14089;BME280;7120;52.890;6.040;2023-07-13T13:02:32;101567.53;;;26.66;43.39
14089;BME280;7120;52.890;6.040;2023-07-13T13:05:00;101572.16;;;27.49;45.70
14089;BME280;7120;52.890;6.040;2023-07-13T13:07:26;101572.16;;;27.42;43.33
14089;BME280;7120;52.890;6.040;2023-07-13T13:09:52;101570.16;;;27.85;41.92
14089;BME280;7120;52.890;6.040;2023-07-13T13:12:22;101583.72;;;27.08;46.12
14089;BME280;7120;52.890;6.040;2023-07-13T13:14:47;101580.59;;;27.56;43.83
14089;BME280;7120;52.890;6.040;2023-07-13T13:17:27;101588.34;;;26.62;42.80
14089;BME280;7120;52.890;6.040;2023-07-13T13:19:54;101589.59;;;26.02;48.89
14089;BME280;7120;52.890;6.040;2023-07-13T13:22:20;101588.63;;;26.42;43.98
14089;BME280;7120;52.890;6.040;2023-07-13T13:24:46;101586.22;;;26.41;43.98
14089;BME280;7120;52.890;6.040;2023-07-13T13:27:20;101594.34;;;26.64;44.11
14089;BME280;7120;52.890;6.040;2023-07-13T13:29:49;101584.00;;;26.78;44.47
14089;BME280;7120;52.890;6.040;2023-07-13T13:32:15;101588.81;;;26.85;43.88
14089;BME280;7120;52.890;6.040;2023-07-13T13:34:41;101590.94;;;27.09;44.94
14089;BME280;7120;52.890;6.040;2023-07-13T13:37:23;101594.31;;;26.53;47.14
14089;BME280;7120;52.890;6.040;2023-07-13T13:39:50;101591.47;;;26.49;45.71